sensor_id;sensor_type;location;lat;lon;timestamp;P1;durP1;ratioP1;P2;durP2;ratioP2
53299;SDS011;39187;48.476;8.310;2023-02-19T00:02:25;3.80;;;3.60;;
53299;SDS011;39187;48.476;8.310;2023-02-19T00:04:51;4.37;;;4.00;;
53299;SDS011;39187;48.476;8.310;2023-02-19T00:07:16;3.70;;;3.50;;
53299;SDS011;39187;48.476;8.310;2023-02-19T00:09:42;3.80;;;3.60;;
53299;SDS011;39187;48.476;8.310;2023-02-19T00:12:07;3.40;;;3.30;;
53299;SDS011;39187;48.476;8.310;2023-02-19T00:14:33;3.90;;;3.73;;
53299;SDS011;39187;48.476;8.310;2023-02-19T00:16:58;3.50;;;3.40;;
53299;SDS011;39187;48.476;8.310;2023-02-19T00:19:24;5.67;;;4.10;;
53299;SDS011;39187;48.476;8.310;2023-02-19T00:21:50;3.90;;;3.70;;
53299;SDS011;39187;48.476;8.310;2023-02-19T00:24:16;3.57;;;3.37;;
53299;SDS011;39187;48.476;8.310;2023-02-19T00:26:42;4.10;;;4.00;;
53299;SDS011;39187;48.476;8.310;2023-02-19T00:29:14;4.83;;;4.00;;
53299;SDS011;39187;48.476;8.310;2023-02-19T00:31:43;4.23;;;4.03;;
53299;SDS011;39187;48.476;8.310;2023-02-19T00:34:10;4.10;;;4.00;;
53299;SDS011;39187;48.476;8.310;2023-02-19T00:36:37;4.40;;;4.10;;
53299;SDS011;39187;48.476;8.310;2023-02-19T00:39:05;5.73;;;5.43;;
53299;SDS011;39187;48.476;8.310;2023-02-19T00:41:32;4.50;;;4.30;;
53299;SDS011;39187;48.476;8.310;2023-02-19T00:43:58;4.70;;;4.40;;
53299;SDS011;39187;48.476;8.310;2023-02-19T00:46:27;5.93;;;5.47;;
53299;SDS011;39187;48.476;8.310;2023-02-19T00:48:54;5.30;;;5.10;;
53299;SDS011;39187;48.476;8.310;2023-02-19T00:51:21;4.50;;;4.30;;
53299;SDS011;39187;48.476;8.310;2023-02-19T00:53:48;6.50;;;5.00;;
53299;SDS011;39187;48.476;8.310;2023-02-19T00:56:14;4.83;;;4.63;;
53299;SDS011;39187;48.476;8.310;2023-02-19T00:58:40;5.43;;;5.13;;
53299;SDS011;39187;48.476;8.310;2023-02-19T01:01:06;5.67;;;5.37;;
53299;SDS011;39187;48.476;8.310;2023-02-19T01:03:32;5.60;;;5.40;;
53299;SDS011;39187;48.476;8.310;2023-02-19T01:05:59;4.93;;;4.73;;
53299;SDS011;39187;48.476;8.310;2023-02-19T01:08:25;4.80;;;4.50;;
53299;SDS011;39187;48.476;8.310;2023-02-19T01:10:51;6.60;;;6.20;;
53299;SDS011;39187;48.476;8.310;2023-02-19T01:13:17;5.10;;;4.90;;
53299;SDS011;39187;48.476;8.310;2023-02-19T01:15:43;8.17;;;5.10;;
53299;SDS011;39187;48.476;8.310;2023-02-19T01:18:09;5.40;;;5.10;;
53299;SDS011;39187;48.476;8.310;2023-02-19T01:20:36;5.23;;;4.93;;
53299;SDS011;39187;48.476;8.310;2023-02-19T01:23:03;4.77;;;4.57;;
53299;SDS011;39187;48.476;8.310;2023-02-19T01:25:29;5.60;;;5.30;;
53299;SDS011;39187;48.476;8.310;2023-02-19T01:27:55;5.13;;;4.93;;
53299;SDS011;39187;48.476;8.310;2023-02-19T01:30:20;5.23;;;4.87;;
53299;SDS011;39187;48.476;8.310;2023-02-19T01:32:46;5.20;;;4.90;;
53299;SDS011;39187;48.476;8.310;2023-02-19T01:35:11;5.80;;;5.60;;
53299;SDS011;39187;48.476;8.310;2023-02-19T01:37:37;4.93;;;4.73;;
53299;SDS011;39187;48.476;8.310;2023-02-19T01:40:02;6.00;;;5.77;;
53299;SDS011;39187;48.476;8.310;2023-02-19T01:42:28;5.63;;;5.33;;
53299;SDS011;39187;48.476;8.310;2023-02-19T01:47:37;6.23;;;5.87;;
53299;SDS011;39187;48.476;8.310;2023-02-19T01:50:03;5.60;;;5.20;;
53299;SDS011;39187;48.476;8.310;2023-02-19T01:52:30;5.20;;;4.90;;
53299;SDS011;39187;48.476;8.310;2023-02-19T01:54:59;5.93;;;5.53;;
53299;SDS011;39187;48.476;8.310;2023-02-19T01:57:27;6.03;;;5.73;;
53299;SDS011;39187;48.476;8.310;2023-02-19T01:59:58;5.93;;;5.63;;
53299;SDS011;39187;48.476;8.310;2023-02-19T02:02:30;5.70;;;5.40;;
53299;SDS011;39187;48.476;8.310;2023-02-19T02:04:56;5.97;;;5.77;;
53299;SDS011;39187;48.476;8.310;2023-02-19T02:07:24;5.80;;;5.50;;
53299;SDS011;39187;48.476;8.310;2023-02-19T02:10:08;5.57;;;5.10;;
53299;SDS011;39187;48.476;8.310;2023-02-19T02:12:46;6.73;;;6.33;;
53299;SDS011;39187;48.476;8.310;2023-02-19T02:15:13;6.03;;;5.77;;
53299;SDS011;39187;48.476;8.310;2023-02-19T02:23:22;6.03;;;5.73;;
53299;SDS011;39187;48.476;8.310;2023-02-19T02:31:39;4.30;;;4.10;;
53299;SDS011;39187;48.476;8.310;2023-02-19T02:34:29;4.20;;;4.00;;
53299;SDS011;39187;48.476;8.310;2023-02-19T02:37:26;3.77;;;3.57;;
53299;SDS011;39187;48.476;8.310;2023-02-19T02:39:56;3.63;;;3.53;;
53299;SDS011;39187;48.476;8.310;2023-02-19T02:42:23;4.07;;;3.87;;
53299;SDS011;39187;48.476;8.310;2023-02-19T02:44:52;3.37;;;3.20;;
53299;SDS011;39187;48.476;8.310;2023-02-19T02:47:43;3.83;;;3.73;;
53299;SDS011;39187;48.476;8.310;2023-02-19T02:50:21;3.60;;;3.50;;
53299;SDS011;39187;48.476;8.310;2023-02-19T02:52:51;3.67;;;3.57;;
53299;SDS011;39187;48.476;8.310;2023-02-19T02:55:42;4.23;;;4.03;;
53299;SDS011;39187;48.476;8.310;2023-02-19T02:58:11;4.57;;;4.37;;
53299;SDS011;39187;48.476;8.310;2023-02-19T03:00:38;4.87;;;4.67;;
53299;SDS011;39187;48.476;8.310;2023-02-19T03:03:25;4.97;;;4.77;;
53299;SDS011;39187;48.476;8.310;2023-02-19T03:05:56;4.93;;;4.60;;
53299;SDS011;39187;48.476;8.310;2023-02-19T03:08:29;4.93;;;4.73;;
53299;SDS011;39187;48.476;8.310;2023-02-19T03:13:52;5.20;;;5.00;;
53299;SDS011;39187;48.476;8.310;2023-02-19T03:17:04;5.60;;;5.40;;
53299;SDS011;39187;48.476;8.310;2023-02-19T03:20:02;4.10;;;3.90;;
53299;SDS011;39187;48.476;8.310;2023-02-19T03:22:32;4.63;;;4.43;;
53299;SDS011;39187;48.476;8.310;2023-02-19T03:25:04;5.33;;;4.83;;
53299;SDS011;39187;48.476;8.310;2023-02-19T03:27:54;6.90;;;4.93;;
53299;SDS011;39187;48.476;8.310;2023-02-19T03:30:24;4.50;;;4.30;;
53299;SDS011;39187;48.476;8.310;2023-02-19T03:32:59;4.30;;;4.10;;
53299;SDS011;39187;48.476;8.310;2023-02-19T03:35:51;4.20;;;4.00;;
53299;SDS011;39187;48.476;8.310;2023-02-19T03:38:38;3.80;;;3.60;;
53299;SDS011;39187;48.476;8.310;2023-02-19T03:41:09;3.73;;;3.63;;
53299;SDS011;39187;48.476;8.310;2023-02-19T03:43:56;4.03;;;3.83;;
53299;SDS011;39187;48.476;8.310;2023-02-19T03:46:59;4.10;;;3.90;;
53299;SDS011;39187;48.476;8.310;2023-02-19T03:55:09;3.40;;;3.30;;
53299;SDS011;39187;48.476;8.310;2023-02-19T03:57:50;2.93;;;2.83;;
53299;SDS011;39187;48.476;8.310;2023-02-19T04:00:31;3.57;;;3.47;;
53299;SDS011;39187;48.476;8.310;2023-02-19T04:05:52;83.47;;;5.30;;
53299;SDS011;39187;48.476;8.310;2023-02-19T04:08:22;21.00;;;3.40;;
53299;SDS011;39187;48.476;8.310;2023-02-19T04:10:49;10.77;;;2.77;;
53299;SDS011;39187;48.476;8.310;2023-02-19T04:13:27;9.30;;;2.53;;
53299;SDS011;39187;48.476;8.310;2023-02-19T04:15:59;3.03;;;2.93;;
53299;SDS011;39187;48.476;8.310;2023-02-19T04:18:30;3.30;;;3.10;;
53299;SDS011;39187;48.476;8.310;2023-02-19T04:21:00;19.33;;;4.90;;
53299;SDS011;39187;48.476;8.310;2023-02-19T04:23:28;31.00;;;4.80;;
53299;SDS011;39187;48.476;8.310;2023-02-19T04:25:57;20.60;;;4.13;;
53299;SDS011;39187;48.476;8.310;2023-02-19T04:28:25;15.03;;;4.10;;
53299;SDS011;39187;48.476;8.310;2023-02-19T04:30:52;4.07;;;3.87;;
53299;SDS011;39187;48.476;8.310;2023-02-19T04:33:18;5.10;;;4.70;;
53299;SDS011;39187;48.476;8.310;2023-02-19T04:35:43;4.97;;;3.97;;
53299;SDS011;39187;48.476;8.310;2023-02-19T04:38:09;3.90;;;3.40;;
53299;SDS011;39187;48.476;8.310;2023-02-19T04:40:35;3.80;;;3.70;;
53299;SDS011;39187;48.476;8.310;2023-02-19T04:43:00;3.80;;;3.60;;
53299;SDS011;39187;48.476;8.310;2023-02-19T04:45:26;4.03;;;3.73;;
53299;SDS011;39187;48.476;8.310;2023-02-19T04:47:51;6.33;;;3.90;;
53299;SDS011;39187;48.476;8.310;2023-02-19T04:50:17;3.20;;;3.10;;
53299;SDS011;39187;48.476;8.310;2023-02-19T04:52:42;2.73;;;2.63;;
53299;SDS011;39187;48.476;8.310;2023-02-19T04:55:08;2.90;;;2.70;;
53299;SDS011;39187;48.476;8.310;2023-02-19T04:57:34;2.63;;;2.53;;
53299;SDS011;39187;48.476;8.310;2023-02-19T05:00:00;4.43;;;2.43;;
53299;SDS011;39187;48.476;8.310;2023-02-19T05:02:25;3.47;;;2.43;;
53299;SDS011;39187;48.476;8.310;2023-02-19T05:04:51;14.23;;;2.57;;
53299;SDS011;39187;48.476;8.310;2023-02-19T05:07:17;13.43;;;3.07;;
53299;SDS011;39187;48.476;8.310;2023-02-19T05:09:42;43.63;;;4.30;;
53299;SDS011;39187;48.476;8.310;2023-02-19T05:12:21;29.20;;;3.03;;
53299;SDS011;39187;48.476;8.310;2023-02-19T05:14:54;2.20;;;2.10;;
53299;SDS011;39187;48.476;8.310;2023-02-19T05:17:19;2.97;;;2.17;;
53299;SDS011;39187;48.476;8.310;2023-02-19T05:19:45;11.00;;;2.10;;
53299;SDS011;39187;48.476;8.310;2023-02-19T05:22:10;1.40;;;1.40;;
53299;SDS011;39187;48.476;8.310;2023-02-19T05:24:36;1.17;;;1.17;;
53299;SDS011;39187;48.476;8.310;2023-02-19T05:27:01;1.20;;;1.20;;
53299;SDS011;39187;48.476;8.310;2023-02-19T05:29:29;30.07;;;2.87;;
53299;SDS011;39187;48.476;8.310;2023-02-19T05:31:56;6.63;;;1.40;;
53299;SDS011;39187;48.476;8.310;2023-02-19T05:34:21;5.90;;;1.33;;
53299;SDS011;39187;48.476;8.310;2023-02-19T05:36:47;4.20;;;1.00;;
53299;SDS011;39187;48.476;8.310;2023-02-19T05:39:12;1.83;;;1.00;;
53299;SDS011;39187;48.476;8.310;2023-02-19T05:41:38;5.30;;;1.10;;
53299;SDS011;39187;48.476;8.310;2023-02-19T05:44:03;1.87;;;0.70;;
53299;SDS011;39187;48.476;8.310;2023-02-19T05:46:29;2.73;;;0.60;;
53299;SDS011;39187;48.476;8.310;2023-02-19T05:48:55;0.67;;;0.67;;
53299;SDS011;39187;48.476;8.310;2023-02-19T05:51:25;11.73;;;0.90;;
53299;SDS011;39187;48.476;8.310;2023-02-19T05:53:52;3.73;;;0.97;;
53299;SDS011;39187;48.476;8.310;2023-02-19T05:59:07;2.30;;;1.07;;
53299;SDS011;39187;48.476;8.310;2023-02-19T06:01:38;4.83;;;0.90;;
53299;SDS011;39187;48.476;8.310;2023-02-19T06:04:04;11.33;;;0.90;;
53299;SDS011;39187;48.476;8.310;2023-02-19T06:06:29;12.83;;;0.93;;
53299;SDS011;39187;48.476;8.310;2023-02-19T06:08:55;5.07;;;0.80;;
53299;SDS011;39187;48.476;8.310;2023-02-19T06:11:21;9.03;;;1.00;;
53299;SDS011;39187;48.476;8.310;2023-02-19T06:13:46;193.97;;;6.77;;
53299;SDS011;39187;48.476;8.310;2023-02-19T06:16:14;15.90;;;1.00;;
53299;SDS011;39187;48.476;8.310;2023-02-19T06:18:42;0.53;;;0.53;;
53299;SDS011;39187;48.476;8.310;2023-02-19T06:21:09;1.77;;;0.70;;
53299;SDS011;39187;48.476;8.310;2023-02-19T06:23:36;10.13;;;1.20;;
53299;SDS011;39187;48.476;8.310;2023-02-19T06:26:21;0.60;;;0.60;;
53299;SDS011;39187;48.476;8.310;2023-02-19T06:28:48;30.40;;;1.63;;
53299;SDS011;39187;48.476;8.310;2023-02-19T06:31:16;57.87;;;2.40;;
53299;SDS011;39187;48.476;8.310;2023-02-19T06:33:42;0.70;;;0.60;;
53299;SDS011;39187;48.476;8.310;2023-02-19T06:36:12;50.50;;;2.40;;
53299;SDS011;39187;48.476;8.310;2023-02-19T06:38:40;0.80;;;0.60;;
53299;SDS011;39187;48.476;8.310;2023-02-19T06:41:06;30.00;;;2.30;;
53299;SDS011;39187;48.476;8.310;2023-02-19T06:43:33;8.00;;;1.17;;
53299;SDS011;39187;48.476;8.310;2023-02-19T06:46:00;1.40;;;0.70;;
53299;SDS011;39187;48.476;8.310;2023-02-19T06:48:28;1.10;;;1.10;;
53299;SDS011;39187;48.476;8.310;2023-02-19T06:50:54;0.83;;;0.83;;
53299;SDS011;39187;48.476;8.310;2023-02-19T06:53:20;0.93;;;0.93;;
53299;SDS011;39187;48.476;8.310;2023-02-19T06:56:00;1.40;;;1.30;;
53299;SDS011;39187;48.476;8.310;2023-02-19T06:58:27;0.90;;;0.90;;
53299;SDS011;39187;48.476;8.310;2023-02-19T07:00:53;1.20;;;1.10;;
53299;SDS011;39187;48.476;8.310;2023-02-19T07:03:19;1.53;;;0.70;;
53299;SDS011;39187;48.476;8.310;2023-02-19T07:05:44;2.07;;;1.13;;
53299;SDS011;39187;48.476;8.310;2023-02-19T07:08:10;0.90;;;0.90;;
53299;SDS011;39187;48.476;8.310;2023-02-19T07:10:43;1.30;;;1.30;;
53299;SDS011;39187;48.476;8.310;2023-02-19T07:13:09;1.10;;;1.10;;
53299;SDS011;39187;48.476;8.310;2023-02-19T07:15:35;1.50;;;1.50;;
53299;SDS011;39187;48.476;8.310;2023-02-19T07:18:01;0.97;;;0.97;;
53299;SDS011;39187;48.476;8.310;2023-02-19T07:20:26;1.10;;;1.10;;
53299;SDS011;39187;48.476;8.310;2023-02-19T07:22:52;1.37;;;1.37;;
53299;SDS011;39187;48.476;8.310;2023-02-19T07:25:17;1.30;;;1.20;;
53299;SDS011;39187;48.476;8.310;2023-02-19T07:27:43;1.00;;;1.00;;
53299;SDS011;39187;48.476;8.310;2023-02-19T07:30:09;7.33;;;1.90;;
53299;SDS011;39187;48.476;8.310;2023-02-19T07:32:35;1.03;;;1.03;;
53299;SDS011;39187;48.476;8.310;2023-02-19T07:35:00;0.83;;;0.83;;
53299;SDS011;39187;48.476;8.310;2023-02-19T07:37:26;1.30;;;1.30;;
53299;SDS011;39187;48.476;8.310;2023-02-19T07:39:51;1.30;;;1.30;;
53299;SDS011;39187;48.476;8.310;2023-02-19T07:42:17;0.90;;;0.90;;
53299;SDS011;39187;48.476;8.310;2023-02-19T07:44:42;1.03;;;1.00;;
53299;SDS011;39187;48.476;8.310;2023-02-19T07:47:08;1.83;;;1.00;;
53299;SDS011;39187;48.476;8.310;2023-02-19T07:49:34;3.37;;;0.90;;
53299;SDS011;39187;48.476;8.310;2023-02-19T07:51:59;2.37;;;1.17;;
53299;SDS011;39187;48.476;8.310;2023-02-19T07:54:25;0.87;;;0.87;;
53299;SDS011;39187;48.476;8.310;2023-02-19T07:56:50;3.03;;;1.10;;
53299;SDS011;39187;48.476;8.310;2023-02-19T07:59:16;0.97;;;0.97;;
53299;SDS011;39187;48.476;8.310;2023-02-19T08:01:45;1.07;;;1.07;;
53299;SDS011;39187;48.476;8.310;2023-02-19T08:04:29;1.20;;;1.20;;
53299;SDS011;39187;48.476;8.310;2023-02-19T08:06:55;1.30;;;1.20;;
53299;SDS011;39187;48.476;8.310;2023-02-19T08:09:20;1.90;;;1.57;;
53299;SDS011;39187;48.476;8.310;2023-02-19T08:11:46;1.10;;;1.10;;
53299;SDS011;39187;48.476;8.310;2023-02-19T08:14:30;1.67;;;1.57;;
53299;SDS011;39187;48.476;8.310;2023-02-19T08:16:56;1.87;;;1.77;;
53299;SDS011;39187;48.476;8.310;2023-02-19T08:19:21;2.80;;;2.70;;
53299;SDS011;39187;48.476;8.310;2023-02-19T08:21:47;1.80;;;1.70;;
53299;SDS011;39187;48.476;8.310;2023-02-19T08:24:14;1.73;;;1.63;;
53299;SDS011;39187;48.476;8.310;2023-02-19T08:26:40;5.13;;;2.40;;
53299;SDS011;39187;48.476;8.310;2023-02-19T08:29:06;1.50;;;1.40;;
53299;SDS011;39187;48.476;8.310;2023-02-19T08:31:32;1.80;;;1.70;;
53299;SDS011;39187;48.476;8.310;2023-02-19T08:33:58;2.50;;;2.40;;
53299;SDS011;39187;48.476;8.310;2023-02-19T08:36:24;2.70;;;2.60;;
53299;SDS011;39187;48.476;8.310;2023-02-19T08:38:50;2.20;;;2.00;;
53299;SDS011;39187;48.476;8.310;2023-02-19T08:41:15;2.37;;;2.27;;
53299;SDS011;39187;48.476;8.310;2023-02-19T08:44:00;1.80;;;1.70;;
53299;SDS011;39187;48.476;8.310;2023-02-19T08:46:25;1.77;;;1.67;;
53299;SDS011;39187;48.476;8.310;2023-02-19T08:48:51;2.10;;;2.00;;
53299;SDS011;39187;48.476;8.310;2023-02-19T08:51:16;2.47;;;2.37;;
53299;SDS011;39187;48.476;8.310;2023-02-19T08:53:42;2.30;;;2.20;;
53299;SDS011;39187;48.476;8.310;2023-02-19T08:56:08;1.93;;;1.83;;
53299;SDS011;39187;48.476;8.310;2023-02-19T08:58:37;2.90;;;2.50;;
53299;SDS011;39187;48.476;8.310;2023-02-19T09:01:09;2.60;;;2.50;;
53299;SDS011;39187;48.476;8.310;2023-02-19T09:03:37;2.50;;;2.40;;
53299;SDS011;39187;48.476;8.310;2023-02-19T09:06:03;2.13;;;1.93;;
53299;SDS011;39187;48.476;8.310;2023-02-19T09:08:28;2.43;;;2.33;;
53299;SDS011;39187;48.476;8.310;2023-02-19T09:10:57;2.30;;;2.20;;
53299;SDS011;39187;48.476;8.310;2023-02-19T09:13:28;1.83;;;1.73;;
53299;SDS011;39187;48.476;8.310;2023-02-19T09:15:54;1.60;;;1.50;;
53299;SDS011;39187;48.476;8.310;2023-02-19T09:18:37;1.47;;;1.40;;
53299;SDS011;39187;48.476;8.310;2023-02-19T09:21:03;1.93;;;1.83;;
53299;SDS011;39187;48.476;8.310;2023-02-19T09:24:02;1.90;;;1.80;;
53299;SDS011;39187;48.476;8.310;2023-02-19T09:26:28;2.10;;;2.00;;
53299;SDS011;39187;48.476;8.310;2023-02-19T09:28:53;2.43;;;2.30;;
53299;SDS011;39187;48.476;8.310;2023-02-19T09:31:19;2.63;;;2.53;;
53299;SDS011;39187;48.476;8.310;2023-02-19T09:33:45;2.83;;;2.63;;
53299;SDS011;39187;48.476;8.310;2023-02-19T09:36:12;2.30;;;2.20;;
53299;SDS011;39187;48.476;8.310;2023-02-19T09:38:39;2.37;;;1.63;;
53299;SDS011;39187;48.476;8.310;2023-02-19T09:41:06;3.63;;;1.80;;
53299;SDS011;39187;48.476;8.310;2023-02-19T09:43:38;2.20;;;2.10;;
53299;SDS011;39187;48.476;8.310;2023-02-19T09:46:37;2.90;;;2.70;;
53299;SDS011;39187;48.476;8.310;2023-02-19T09:49:03;2.50;;;2.40;;
53299;SDS011;39187;48.476;8.310;2023-02-19T09:51:33;1.70;;;1.60;;
53299;SDS011;39187;48.476;8.310;2023-02-19T09:54:02;2.00;;;1.90;;
53299;SDS011;39187;48.476;8.310;2023-02-19T09:56:30;2.30;;;2.20;;
53299;SDS011;39187;48.476;8.310;2023-02-19T09:58:56;2.07;;;1.90;;
53299;SDS011;39187;48.476;8.310;2023-02-19T10:01:24;1.93;;;1.83;;
53299;SDS011;39187;48.476;8.310;2023-02-19T10:03:54;2.77;;;2.67;;
53299;SDS011;39187;48.476;8.310;2023-02-19T10:06:21;2.53;;;2.33;;
53299;SDS011;39187;48.476;8.310;2023-02-19T10:09:10;2.10;;;2.00;;
53299;SDS011;39187;48.476;8.310;2023-02-19T10:11:52;1.90;;;1.80;;
53299;SDS011;39187;48.476;8.310;2023-02-19T10:14:21;2.27;;;2.10;;
53299;SDS011;39187;48.476;8.310;2023-02-19T10:17:06;2.60;;;2.40;;
53299;SDS011;39187;48.476;8.310;2023-02-19T10:19:42;2.20;;;2.10;;
53299;SDS011;39187;48.476;8.310;2023-02-19T10:22:08;2.60;;;2.40;;
53299;SDS011;39187;48.476;8.310;2023-02-19T10:24:35;2.60;;;2.23;;
53299;SDS011;39187;48.476;8.310;2023-02-19T10:27:01;2.27;;;2.17;;
53299;SDS011;39187;48.476;8.310;2023-02-19T10:29:27;2.23;;;2.13;;
53299;SDS011;39187;48.476;8.310;2023-02-19T10:34:38;2.63;;;2.53;;
53299;SDS011;39187;48.476;8.310;2023-02-19T10:37:03;3.97;;;2.70;;
53299;SDS011;39187;48.476;8.310;2023-02-19T10:39:46;2.20;;;2.10;;
53299;SDS011;39187;48.476;8.310;2023-02-19T10:42:19;1.87;;;1.77;;
53299;SDS011;39187;48.476;8.310;2023-02-19T10:44:52;2.20;;;2.10;;
53299;SDS011;39187;48.476;8.310;2023-02-19T10:47:26;2.10;;;1.90;;
53299;SDS011;39187;48.476;8.310;2023-02-19T10:49:56;2.03;;;1.83;;
53299;SDS011;39187;48.476;8.310;2023-02-19T10:52:24;1.80;;;1.70;;
53299;SDS011;39187;48.476;8.310;2023-02-19T10:54:57;5.90;;;2.30;;
53299;SDS011;39187;48.476;8.310;2023-02-19T10:57:38;2.30;;;2.20;;
53299;SDS011;39187;48.476;8.310;2023-02-19T11:02:39;2.70;;;2.60;;
53299;SDS011;39187;48.476;8.310;2023-02-19T11:05:14;6.50;;;2.53;;
53299;SDS011;39187;48.476;8.310;2023-02-19T11:07:46;3.13;;;2.93;;
53299;SDS011;39187;48.476;8.310;2023-02-19T11:12:50;4.40;;;2.47;;
53299;SDS011;39187;48.476;8.310;2023-02-19T11:15:24;2.50;;;2.40;;
53299;SDS011;39187;48.476;8.310;2023-02-19T11:18:02;3.00;;;2.80;;
53299;SDS011;39187;48.476;8.310;2023-02-19T11:20:32;2.40;;;2.30;;
53299;SDS011;39187;48.476;8.310;2023-02-19T11:23:14;2.53;;;2.33;;
53299;SDS011;39187;48.476;8.310;2023-02-19T11:25:45;3.53;;;2.80;;
53299;SDS011;39187;48.476;8.310;2023-02-19T11:28:21;4.83;;;3.03;;
53299;SDS011;39187;48.476;8.310;2023-02-19T11:30:52;2.80;;;2.70;;
53299;SDS011;39187;48.476;8.310;2023-02-19T11:33:19;2.43;;;2.33;;
53299;SDS011;39187;48.476;8.310;2023-02-19T11:35:49;2.97;;;2.77;;
53299;SDS011;39187;48.476;8.310;2023-02-19T11:38:17;2.97;;;2.87;;
53299;SDS011;39187;48.476;8.310;2023-02-19T11:49:10;2.90;;;2.70;;
53299;SDS011;39187;48.476;8.310;2023-02-19T11:54:53;4.83;;;3.20;;
53299;SDS011;39187;48.476;8.310;2023-02-19T11:57:23;3.30;;;3.10;;
53299;SDS011;39187;48.476;8.310;2023-02-19T12:00:22;5.73;;;3.10;;
53299;SDS011;39187;48.476;8.310;2023-02-19T12:05:46;2.83;;;2.63;;
53299;SDS011;39187;48.476;8.310;2023-02-19T12:14:08;4.60;;;3.13;;
53299;SDS011;39187;48.476;8.310;2023-02-19T12:19:40;4.13;;;2.40;;
53299;SDS011;39187;48.476;8.310;2023-02-19T12:25:21;3.20;;;2.90;;
53299;SDS011;39187;48.476;8.310;2023-02-19T12:28:06;3.03;;;2.73;;
53299;SDS011;39187;48.476;8.310;2023-02-19T12:33:27;2.97;;;2.77;;
53299;SDS011;39187;48.476;8.310;2023-02-19T12:41:49;2.50;;;2.10;;
53299;SDS011;39187;48.476;8.310;2023-02-19T12:44:41;2.97;;;2.50;;
53299;SDS011;39187;48.476;8.310;2023-02-19T12:47:15;3.57;;;2.20;;
53299;SDS011;39187;48.476;8.310;2023-02-19T12:50:02;4.60;;;2.67;;
53299;SDS011;39187;48.476;8.310;2023-02-19T12:52:40;3.43;;;2.03;;
53299;SDS011;39187;48.476;8.310;2023-02-19T12:55:19;3.10;;;2.47;;
53299;SDS011;39187;48.476;8.310;2023-02-19T12:57:48;2.50;;;2.27;;
53299;SDS011;39187;48.476;8.310;2023-02-19T13:06:26;2.63;;;2.53;;
53299;SDS011;39187;48.476;8.310;2023-02-19T13:12:12;3.57;;;2.20;;
53299;SDS011;39187;48.476;8.310;2023-02-19T13:14:47;7.20;;;3.30;;
53299;SDS011;39187;48.476;8.310;2023-02-19T13:17:30;4.53;;;2.90;;
53299;SDS011;39187;48.476;8.310;2023-02-19T13:28:56;5.60;;;3.17;;
53299;SDS011;39187;48.476;8.310;2023-02-19T13:36:57;2.53;;;2.33;;
53299;SDS011;39187;48.476;8.310;2023-02-19T13:39:24;2.60;;;2.40;;
53299;SDS011;39187;48.476;8.310;2023-02-19T13:41:56;2.87;;;2.10;;
53299;SDS011;39187;48.476;8.310;2023-02-19T13:44:29;5.03;;;2.77;;
53299;SDS011;39187;48.476;8.310;2023-02-19T13:46:56;6.33;;;2.60;;
53299;SDS011;39187;48.476;8.310;2023-02-19T13:52:01;2.57;;;2.47;;
53299;SDS011;39187;48.476;8.310;2023-02-19T13:54:46;14.13;;;3.40;;
53299;SDS011;39187;48.476;8.310;2023-02-19T13:59:43;2.70;;;2.50;;
53299;SDS011;39187;48.476;8.310;2023-02-19T14:04:48;3.77;;;3.57;;
53299;SDS011;39187;48.476;8.310;2023-02-19T14:07:33;3.43;;;3.23;;
53299;SDS011;39187;48.476;8.310;2023-02-19T14:10:13;7.97;;;2.73;;
53299;SDS011;39187;48.476;8.310;2023-02-19T14:12:59;10.50;;;3.30;;
53299;SDS011;39187;48.476;8.310;2023-02-19T14:15:41;3.50;;;3.30;;
53299;SDS011;39187;48.476;8.310;2023-02-19T14:21:11;4.20;;;3.37;;
53299;SDS011;39187;48.476;8.310;2023-02-19T14:23:50;3.17;;;2.97;;
53299;SDS011;39187;48.476;8.310;2023-02-19T14:26:17;4.17;;;2.20;;
53299;SDS011;39187;48.476;8.310;2023-02-19T14:28:44;5.53;;;3.23;;
53299;SDS011;39187;48.476;8.310;2023-02-19T14:33:46;3.30;;;3.20;;
53299;SDS011;39187;48.476;8.310;2023-02-19T14:36:16;11.33;;;3.10;;
53299;SDS011;39187;48.476;8.310;2023-02-19T14:39:05;2.63;;;2.43;;
53299;SDS011;39187;48.476;8.310;2023-02-19T14:41:38;3.60;;;3.40;;
53299;SDS011;39187;48.476;8.310;2023-02-19T14:44:11;5.00;;;3.30;;
53299;SDS011;39187;48.476;8.310;2023-02-19T14:46:43;4.73;;;2.70;;
53299;SDS011;39187;48.476;8.310;2023-02-19T14:51:50;3.70;;;3.40;;
53299;SDS011;39187;48.476;8.310;2023-02-19T14:57:01;5.37;;;3.87;;
53299;SDS011;39187;48.476;8.310;2023-02-19T14:59:30;3.43;;;3.23;;
53299;SDS011;39187;48.476;8.310;2023-02-19T15:01:59;4.40;;;3.50;;
53299;SDS011;39187;48.476;8.310;2023-02-19T15:04:38;4.83;;;3.30;;
53299;SDS011;39187;48.476;8.310;2023-02-19T15:07:07;3.53;;;3.23;;
53299;SDS011;39187;48.476;8.310;2023-02-19T15:09:46;7.63;;;3.27;;
53299;SDS011;39187;48.476;8.310;2023-02-19T15:12:15;2.93;;;2.73;;
53299;SDS011;39187;48.476;8.310;2023-02-19T15:14:44;3.60;;;3.30;;
53299;SDS011;39187;48.476;8.310;2023-02-19T15:17:14;5.97;;;2.90;;
53299;SDS011;39187;48.476;8.310;2023-02-19T15:19:50;4.33;;;2.97;;
53299;SDS011;39187;48.476;8.310;2023-02-19T15:22:21;4.33;;;2.47;;
53299;SDS011;39187;48.476;8.310;2023-02-19T15:24:48;6.10;;;2.77;;
53299;SDS011;39187;48.476;8.310;2023-02-19T15:27:18;3.43;;;3.13;;
53299;SDS011;39187;48.476;8.310;2023-02-19T15:29:46;3.17;;;2.87;;
53299;SDS011;39187;48.476;8.310;2023-02-19T15:32:24;9.00;;;2.77;;
53299;SDS011;39187;48.476;8.310;2023-02-19T15:34:58;9.40;;;3.13;;
53299;SDS011;39187;48.476;8.310;2023-02-19T15:37:25;11.00;;;2.80;;
53299;SDS011;39187;48.476;8.310;2023-02-19T15:39:53;3.20;;;3.00;;
53299;SDS011;39187;48.476;8.310;2023-02-19T15:42:24;3.67;;;3.10;;
53299;SDS011;39187;48.476;8.310;2023-02-19T15:45:08;4.37;;;3.90;;
53299;SDS011;39187;48.476;8.310;2023-02-19T15:50:35;7.00;;;3.17;;
53299;SDS011;39187;48.476;8.310;2023-02-19T15:53:11;4.10;;;3.60;;
53299;SDS011;39187;48.476;8.310;2023-02-19T15:55:39;6.17;;;2.67;;
53299;SDS011;39187;48.476;8.310;2023-02-19T16:03:52;3.10;;;2.90;;
53299;SDS011;39187;48.476;8.310;2023-02-19T16:06:19;5.37;;;3.63;;
53299;SDS011;39187;48.476;8.310;2023-02-19T16:11:27;2.90;;;2.70;;
53299;SDS011;39187;48.476;8.310;2023-02-19T16:14:15;5.43;;;2.80;;
53299;SDS011;39187;48.476;8.310;2023-02-19T16:16:54;6.63;;;3.57;;
53299;SDS011;39187;48.476;8.310;2023-02-19T16:19:41;3.70;;;3.40;;
53299;SDS011;39187;48.476;8.310;2023-02-19T16:22:25;10.73;;;3.20;;
53299;SDS011;39187;48.476;8.310;2023-02-19T16:24:57;4.03;;;3.20;;
53299;SDS011;39187;48.476;8.310;2023-02-19T16:27:27;3.10;;;2.90;;
53299;SDS011;39187;48.476;8.310;2023-02-19T16:30:09;5.23;;;3.00;;
53299;SDS011;39187;48.476;8.310;2023-02-19T16:32:42;5.40;;;3.30;;
53299;SDS011;39187;48.476;8.310;2023-02-19T16:38:11;6.03;;;3.40;;
53299;SDS011;39187;48.476;8.310;2023-02-19T16:45:41;4.33;;;3.20;;
53299;SDS011;39187;48.476;8.310;2023-02-19T16:48:08;4.40;;;3.00;;
53299;SDS011;39187;48.476;8.310;2023-02-19T16:50:34;5.00;;;3.80;;
53299;SDS011;39187;48.476;8.310;2023-02-19T16:53:01;5.20;;;3.37;;
53299;SDS011;39187;48.476;8.310;2023-02-19T16:55:28;7.20;;;3.33;;
53299;SDS011;39187;48.476;8.310;2023-02-19T16:57:56;6.60;;;2.93;;
53299;SDS011;39187;48.476;8.310;2023-02-19T17:00:23;3.67;;;3.37;;
53299;SDS011;39187;48.476;8.310;2023-02-19T17:02:51;3.70;;;3.40;;
53299;SDS011;39187;48.476;8.310;2023-02-19T17:05:20;5.87;;;3.73;;
53299;SDS011;39187;48.476;8.310;2023-02-19T17:07:47;4.03;;;2.50;;
53299;SDS011;39187;48.476;8.310;2023-02-19T17:10:17;5.47;;;3.00;;
53299;SDS011;39187;48.476;8.310;2023-02-19T17:12:44;4.00;;;3.33;;
53299;SDS011;39187;48.476;8.310;2023-02-19T17:15:11;3.10;;;2.90;;
53299;SDS011;39187;48.476;8.310;2023-02-19T17:17:37;6.77;;;3.60;;
53299;SDS011;39187;48.476;8.310;2023-02-19T17:20:36;7.00;;;3.80;;